createdAt,value
2023-06-19T00:00:03.113Z,1000.85
2023-06-19T00:01:03.246Z,1000.80
2023-06-19T00:02:02.529Z,1000.82
2023-06-19T00:03:02.281Z,1000.83
2023-06-19T00:04:02.261Z,1000.82
2023-06-19T00:05:02.292Z,1000.83
2023-06-19T00:06:02.393Z,1000.84
2023-06-19T00:07:02.512Z,1000.81
2023-06-19T00:08:02.367Z,1000.83
2023-06-19T00:09:02.968Z,1000.83
2023-06-19T00:10:02.956Z,1000.87
2023-06-19T00:11:02.781Z,1000.81
2023-06-19T00:12:02.989Z,1000.85
2023-06-19T00:13:03.050Z,1000.81
2023-06-19T00:14:03.118Z,1000.81
2023-06-19T00:15:03.193Z,1000.76
2023-06-19T00:16:03.176Z,1000.73
2023-06-19T00:17:03.122Z,1000.73
2023-06-19T00:18:03.458Z,1000.74
2023-06-19T00:19:02.912Z,1000.74
2023-06-19T00:20:03.139Z,1000.75
2023-06-19T00:21:03.228Z,1000.76
2023-06-19T00:22:02.402Z,1000.75
2023-06-19T00:23:02.683Z,1000.75
2023-06-19T00:24:02.572Z,1000.75
2023-06-19T00:25:02.542Z,1000.74
2023-06-19T00:26:02.438Z,1000.69
2023-06-19T00:27:03.000Z,1000.75
2023-06-19T00:28:03.312Z,1000.77
2023-06-19T00:29:03.370Z,1000.75
2023-06-19T00:30:03.353Z,1000.72
2023-06-19T00:31:03.006Z,1000.72
2023-06-19T00:32:03.111Z,1000.76
2023-06-19T00:33:03.285Z,1000.74
2023-06-19T00:34:02.932Z,1000.77
2023-06-19T00:35:03.075Z,1000.79
2023-06-19T00:36:03.075Z,1000.81
2023-06-19T00:37:03.160Z,1000.83
2023-06-19T00:38:03.270Z,1000.87
2023-06-19T00:39:03.401Z,1000.87
2023-06-19T00:40:03.476Z,1000.87
2023-06-19T00:41:03.352Z,1000.91
2023-06-19T00:42:02.458Z,1000.91
2023-06-19T00:43:02.574Z,1000.95
2023-06-19T00:44:02.758Z,1000.96
2023-06-19T00:45:02.603Z,1001.01
2023-06-19T00:46:02.699Z,1000.99
2023-06-19T00:47:02.584Z,1001.02
2023-06-19T00:48:02.845Z,1001.00
2023-06-19T00:49:02.767Z,1000.98
2023-06-19T00:50:02.858Z,1000.95
2023-06-19T00:51:02.752Z,1000.94
2023-06-19T00:52:02.842Z,1000.95
2023-06-19T00:53:02.954Z,1001.01
2023-06-19T00:54:03.070Z,1000.97
2023-06-19T00:55:02.575Z,1000.95
2023-06-19T00:56:02.656Z,1000.98
2023-06-19T00:57:03.464Z,1000.96
2023-06-19T00:58:03.280Z,1000.99
2023-06-19T00:59:03.362Z,1000.97
2023-06-19T01:00:03.509Z,1000.97
2023-06-19T01:01:08.760Z,1000.99
2023-06-19T01:02:03.229Z,1001.04
2023-06-19T01:03:03.238Z,1001.04
2023-06-19T01:04:03.212Z,1001.05
2023-06-19T01:05:02.817Z,1001.05
2023-06-19T01:06:02.950Z,1001.12
2023-06-19T01:07:02.983Z,1001.13
2023-06-19T01:08:02.551Z,1001.19
2023-06-19T01:09:02.728Z,1001.19
2023-06-19T01:10:02.446Z,1001.21
2023-06-19T01:11:09.029Z,1001.22
2023-06-19T01:12:03.368Z,1001.24
2023-06-19T01:13:03.476Z,1001.21
2023-06-19T01:14:03.322Z,1001.22
2023-06-19T01:15:03.368Z,1001.20
2023-06-19T01:16:03.463Z,1001.21
2023-06-19T01:17:03.527Z,1001.22
2023-06-19T01:18:03.720Z,1001.17
2023-06-19T01:19:03.631Z,1001.14
2023-06-19T01:20:03.723Z,1001.17
2023-06-19T01:21:03.496Z,1001.08
2023-06-19T01:22:03.696Z,1001.10
2023-06-19T01:23:03.153Z,1001.08
2023-06-19T01:24:03.332Z,1001.06
2023-06-19T01:25:03.276Z,1001.02
2023-06-19T01:26:03.405Z,1001.01
2023-06-19T01:27:02.781Z,1000.96
2023-06-19T01:28:02.893Z,1000.96
2023-06-19T01:29:02.975Z,1000.94
2023-06-19T01:30:02.951Z,1000.89
2023-06-19T01:31:02.941Z,1000.91
2023-06-19T01:32:03.777Z,1000.88
2023-06-19T01:33:03.953Z,1000.84
2023-06-19T01:34:03.856Z,1000.85
2023-06-19T01:35:03.668Z,1000.93
2023-06-19T01:36:03.771Z,1000.90
2023-06-19T01:37:03.850Z,1000.94
2023-06-19T01:38:03.912Z,1000.92
2023-06-19T01:39:03.763Z,1000.99
2023-06-19T01:40:03.879Z,1001.01
2023-06-19T01:41:03.979Z,1001.04
2023-06-19T01:42:03.335Z,1001.07
2023-06-19T01:43:03.387Z,1001.08
2023-06-19T01:44:03.503Z,1001.14
2023-06-19T01:45:03.658Z,1001.12
2023-06-19T01:46:03.324Z,1001.13
2023-06-19T01:47:03.974Z,1001.14
2023-06-19T01:48:03.912Z,1001.13
2023-06-19T01:49:03.881Z,1001.14
2023-06-19T01:50:03.926Z,1001.19
2023-06-19T01:51:04.002Z,1001.19
2023-06-19T01:52:02.908Z,1001.18
2023-06-19T01:53:02.694Z,1001.23
2023-06-19T01:54:02.756Z,1001.24
2023-06-19T01:55:02.868Z,1001.21
2023-06-19T01:56:02.948Z,1001.20
2023-06-19T01:57:03.141Z,1001.20
2023-06-19T01:58:03.508Z,1001.20
2023-06-19T01:59:03.598Z,1001.22
2023-06-19T02:00:03.698Z,1001.21
2023-06-19T02:01:03.428Z,1001.19
2023-06-19T02:02:01.704Z,1001.19
2023-06-19T02:03:02.297Z,1001.18
2023-06-19T02:04:01.862Z,1001.22
2023-06-19T02:05:01.988Z,1001.24
2023-06-19T02:06:02.007Z,1001.28
2023-06-19T02:07:02.515Z,1001.26
2023-06-19T02:08:02.624Z,1001.30
2023-06-19T02:09:02.667Z,1001.30
2023-06-19T02:10:02.756Z,1001.31
2023-06-19T02:11:02.168Z,1001.32
2023-06-19T02:12:02.377Z,1001.35
2023-06-19T02:13:02.523Z,1001.38
2023-06-19T02:14:02.395Z,1001.39
2023-06-19T02:15:02.870Z,1001.39
2023-06-19T02:16:02.740Z,1001.44
2023-06-19T02:17:01.942Z,1001.49
2023-06-19T02:18:02.048Z,1001.49
2023-06-19T02:19:02.170Z,1001.47
2023-06-19T02:20:02.465Z,1001.44
2023-06-19T02:21:02.271Z,1001.41
2023-06-19T02:22:02.258Z,1001.41
2023-06-19T02:23:02.418Z,1001.39
2023-06-19T02:24:02.549Z,1001.39
2023-06-19T02:25:02.617Z,1001.41
2023-06-19T02:26:02.470Z,1001.44
2023-06-19T02:27:02.586Z,1001.43
2023-06-19T02:28:03.138Z,1001.47
2023-06-19T02:29:03.069Z,1001.50
2023-06-19T02:30:03.183Z,1001.54
2023-06-19T02:31:02.958Z,1001.56
2023-06-19T02:32:02.225Z,1001.55
2023-06-19T02:33:02.591Z,1001.58
2023-06-19T02:34:02.305Z,1001.59
2023-06-19T02:35:02.308Z,1001.60
2023-06-19T02:36:02.387Z,1001.66
2023-06-19T02:37:02.516Z,1001.67
2023-06-19T02:38:02.629Z,1001.69
2023-06-19T02:39:02.746Z,1001.69
2023-06-19T02:40:02.903Z,1001.71
2023-06-19T02:41:02.934Z,1001.70
2023-06-19T02:42:02.303Z,1001.73
2023-06-19T02:43:02.193Z,1001.76
2023-06-19T02:44:01.954Z,1001.80
2023-06-19T02:45:02.068Z,1001.81
2023-06-19T02:46:02.265Z,1001.79
2023-06-19T02:47:02.406Z,1001.82
2023-06-19T02:48:02.542Z,1001.81
2023-06-19T02:49:02.470Z,1001.79
2023-06-19T02:50:02.598Z,1001.80
2023-06-19T02:51:02.516Z,1001.83
2023-06-19T02:52:02.645Z,1001.83
2023-06-19T02:53:02.793Z,1001.86
2023-06-19T02:54:02.503Z,1001.88
2023-06-19T02:55:03.022Z,1001.90
2023-06-19T02:56:03.176Z,1001.95
2023-06-19T02:57:02.402Z,1001.90
2023-06-19T02:58:02.019Z,1001.94
2023-06-19T02:59:02.263Z,1001.96
2023-06-19T03:00:02.441Z,1001.97
2023-06-19T03:01:01.825Z,1001.94
2023-06-19T03:02:02.710Z,1001.93
2023-06-19T03:03:02.509Z,1001.94
2023-06-19T03:04:02.780Z,1001.93
2023-06-19T03:05:02.983Z,1001.92
2023-06-19T03:06:02.941Z,1001.94
2023-06-19T03:07:03.092Z,1001.94
2023-06-19T03:08:03.290Z,1001.91
2023-06-19T03:09:02.894Z,1001.92
2023-06-19T03:10:03.448Z,1001.91
2023-06-19T03:11:02.845Z,1001.94
2023-06-19T03:12:02.799Z,1001.98
2023-06-19T03:13:02.466Z,1002.00
2023-06-19T03:14:02.814Z,1001.99
2023-06-19T03:15:03.015Z,1002.01
2023-06-19T03:16:02.517Z,1002.02
2023-06-19T03:17:03.252Z,1002.03
2023-06-19T03:18:03.520Z,1002.04
2023-06-19T03:19:03.621Z,1002.08
2023-06-19T03:20:03.756Z,1002.04
2023-06-19T03:21:03.289Z,1002.07
2023-06-19T03:22:03.098Z,1002.07
2023-06-19T03:23:03.062Z,1002.07
2023-06-19T03:24:03.358Z,1002.06
2023-06-19T03:25:02.977Z,1002.08
2023-06-19T03:26:03.197Z,1002.10
2023-06-19T03:27:03.426Z,1002.12
2023-06-19T03:28:03.679Z,1002.10
2023-06-19T03:29:03.119Z,1002.15
2023-06-19T03:30:03.273Z,1002.21
2023-06-19T03:31:03.402Z,1002.22
2023-06-19T03:32:03.577Z,1002.26
2023-06-19T03:33:03.873Z,1002.21
2023-06-19T03:34:03.697Z,1002.21
2023-06-19T03:35:03.797Z,1002.20
2023-06-19T03:36:03.306Z,1002.21
2023-06-19T03:37:03.218Z,1002.24
2023-06-19T03:38:03.433Z,1002.22
2023-06-19T03:39:03.087Z,1002.23
2023-06-19T03:40:03.205Z,1002.29
2023-06-19T03:41:03.454Z,1002.30
2023-06-19T03:42:03.626Z,1002.31
2023-06-19T03:43:03.856Z,1002.33
2023-06-19T03:44:03.780Z,1002.33
2023-06-19T03:45:03.255Z,1002.37
2023-06-19T03:46:03.580Z,1002.37
2023-06-19T03:47:02.810Z,1002.37
2023-06-19T03:48:02.611Z,1002.49
2023-06-19T03:49:02.893Z,1002.48
2023-06-19T03:50:18.964Z,1002.52
2023-06-19T03:51:02.864Z,1002.54
2023-06-19T03:52:03.594Z,1002.52
2023-06-19T03:53:03.141Z,1002.55
2023-06-19T03:54:03.411Z,1002.55
2023-06-19T03:55:03.604Z,1002.58
2023-06-19T03:56:03.144Z,1002.58
2023-06-19T03:57:03.155Z,1002.58
2023-06-19T03:58:02.969Z,1002.62
2023-06-19T03:59:03.217Z,1002.60
2023-06-19T04:00:03.270Z,1002.62
2023-06-19T04:01:03.114Z,1002.61
2023-06-19T04:02:03.455Z,1002.60
2023-06-19T04:03:03.120Z,1002.64
2023-06-19T04:04:03.338Z,1002.63
2023-06-19T04:05:02.914Z,1002.69
2023-06-19T04:06:02.955Z,1002.67
2023-06-19T04:07:03.004Z,1002.69
2023-06-19T04:08:02.358Z,1002.75
2023-06-19T04:09:02.613Z,1002.76
2023-06-19T04:10:02.406Z,1002.78
2023-06-19T04:11:02.692Z,1002.78
2023-06-19T04:12:02.724Z,1002.82
2023-06-19T04:13:02.412Z,1002.78
2023-06-19T04:14:02.674Z,1002.84
2023-06-19T04:15:02.732Z,1002.83
2023-06-19T04:16:02.714Z,1002.85
2023-06-19T04:17:02.788Z,1002.88
2023-06-19T04:18:03.059Z,1002.94
2023-06-19T04:19:02.726Z,1002.93
2023-06-19T04:20:03.225Z,1002.92
2023-06-19T04:21:03.355Z,1002.94
2023-06-19T04:22:02.427Z,1002.99
2023-06-19T04:23:02.706Z,1003.07
2023-06-19T04:24:02.908Z,1003.05
2023-06-19T04:25:02.657Z,1003.06
2023-06-19T04:26:02.987Z,1003.06
2023-06-19T04:27:02.159Z,1003.07
2023-06-19T04:28:02.178Z,1003.07
2023-06-19T04:29:02.488Z,1003.08
2023-06-19T04:30:02.727Z,1003.06
2023-06-19T04:31:02.203Z,1003.10
2023-06-19T04:32:02.772Z,1003.08
2023-06-19T04:33:02.563Z,1003.11
2023-06-19T04:34:02.736Z,1003.15
2023-06-19T04:35:03.027Z,1003.07
2023-06-19T04:36:03.078Z,1003.11
2023-06-19T04:37:02.736Z,1003.09
2023-06-19T04:38:02.852Z,1003.08
2023-06-19T04:39:03.091Z,1003.09
2023-06-19T04:40:02.676Z,1003.08
2023-06-19T04:41:02.686Z,1003.10
2023-06-19T04:42:02.969Z,1003.11
2023-06-19T04:43:03.093Z,1003.13
2023-06-19T04:44:03.131Z,1003.10
2023-06-19T04:45:03.122Z,1003.11
2023-06-19T04:46:03.284Z,1003.12
2023-06-19T04:47:02.568Z,1003.11
2023-06-19T04:48:02.840Z,1003.14
2023-06-19T04:49:03.019Z,1003.13
2023-06-19T04:50:02.977Z,1003.19
2023-06-19T04:51:02.948Z,1003.20
2023-06-19T04:52:03.088Z,1003.21
2023-06-19T04:53:03.539Z,1003.20
2023-06-19T04:54:03.066Z,1003.21
2023-06-19T04:55:03.319Z,1003.18
2023-06-19T04:56:03.444Z,1003.26
2023-06-19T04:57:02.511Z,1003.22
2023-06-19T04:58:02.796Z,1003.25
2023-06-19T04:59:02.380Z,1003.28
2023-06-19T05:00:02.658Z,1003.31
2023-06-19T05:01:02.905Z,1003.32
2023-06-19T05:02:02.922Z,1003.37
2023-06-19T05:03:03.390Z,1003.39
2023-06-19T05:04:03.154Z,1003.44
2023-06-19T05:05:02.906Z,1003.48
2023-06-19T05:06:03.196Z,1003.49
2023-06-19T05:07:02.539Z,1003.48
2023-06-19T05:08:02.627Z,1003.53
2023-06-19T05:09:02.420Z,1003.50
2023-06-19T05:10:02.608Z,1003.53
2023-06-19T05:11:02.603Z,1003.55
2023-06-19T05:12:02.879Z,1003.50
2023-06-19T05:13:03.155Z,1003.52
2023-06-19T05:14:02.680Z,1003.51
2023-06-19T05:15:02.677Z,1003.48
2023-06-19T05:16:02.777Z,1003.50
2023-06-19T05:17:02.325Z,1003.54
2023-06-19T05:18:02.427Z,1003.52
2023-06-19T05:19:02.022Z,1003.52
2023-06-19T05:20:02.373Z,1003.52
2023-06-19T05:21:02.157Z,1003.54
2023-06-19T05:22:02.424Z,1003.54
2023-06-19T05:23:02.311Z,1003.53
2023-06-19T05:24:02.280Z,1003.56
2023-06-19T05:25:02.630Z,1003.55
2023-06-19T05:26:02.223Z,1003.50
2023-06-19T05:27:03.144Z,1003.51
2023-06-19T05:28:05.648Z,1003.55
2023-06-19T05:29:03.011Z,1003.52
2023-06-19T05:30:03.327Z,1003.50
2023-06-19T05:31:03.037Z,1003.51
2023-06-19T05:32:03.300Z,1003.45
2023-06-19T05:33:03.553Z,1003.48
2023-06-19T05:34:03.663Z,1003.49
2023-06-19T05:35:03.603Z,1003.46
2023-06-19T05:36:03.089Z,1003.47
2023-06-19T05:37:02.994Z,1003.45
2023-06-19T05:38:03.262Z,1003.49
2023-06-19T05:39:02.956Z,1003.50
2023-06-19T05:40:03.188Z,1003.50
2023-06-19T05:41:02.790Z,1003.52
2023-06-19T05:42:03.080Z,1003.48
2023-06-19T05:43:03.110Z,1003.51
2023-06-19T05:44:03.344Z,1003.53
2023-06-19T05:45:03.309Z,1003.54
2023-06-19T05:46:02.868Z,1003.58
2023-06-19T05:47:03.241Z,1003.56
2023-06-19T05:48:03.518Z,1003.58
2023-06-19T05:49:03.538Z,1003.58
2023-06-19T05:50:03.049Z,1003.60
2023-06-19T05:51:03.270Z,1003.59
2023-06-19T05:52:03.338Z,1003.62
2023-06-19T05:53:03.423Z,1003.59
2023-06-19T05:54:03.452Z,1003.57
2023-06-19T05:55:03.705Z,1003.62
2023-06-19T05:56:03.404Z,1003.59
2023-06-19T05:57:02.714Z,1003.60
2023-06-19T05:58:02.874Z,1003.64
2023-06-19T05:59:02.597Z,1003.67
2023-06-19T06:00:02.777Z,1003.67
2023-06-19T06:01:02.940Z,1003.67
2023-06-19T06:02:02.412Z,1003.67
2023-06-19T06:03:02.188Z,1003.67
2023-06-19T06:04:02.433Z,1003.72
2023-06-19T06:05:02.509Z,1003.74
2023-06-19T06:06:02.001Z,1003.74
2023-06-19T06:07:02.972Z,1003.77
2023-06-19T06:08:03.178Z,1003.75
2023-06-19T06:09:03.211Z,1003.76
2023-06-19T06:10:03.176Z,1003.79
2023-06-19T06:11:02.551Z,1003.80
2023-06-19T06:12:02.669Z,1003.82
2023-06-19T06:13:02.550Z,1003.85
2023-06-19T06:14:02.095Z,1003.89
2023-06-19T06:15:02.322Z,1003.92
2023-06-19T06:16:02.496Z,1003.92
2023-06-19T06:17:02.472Z,1003.93
2023-06-19T06:18:02.474Z,1003.91
2023-06-19T06:19:02.455Z,1003.88
2023-06-19T06:20:02.425Z,1003.86
2023-06-19T06:21:02.402Z,1003.84
2023-06-19T06:22:02.580Z,1003.81
2023-06-19T06:23:02.069Z,1003.78
2023-06-19T06:24:02.174Z,1003.77
2023-06-19T06:25:02.373Z,1003.76
2023-06-19T06:26:02.733Z,1003.74
2023-06-19T06:27:02.427Z,1003.72
2023-06-19T06:28:02.703Z,1003.71
2023-06-19T06:29:02.728Z,1003.74
2023-06-19T06:30:02.291Z,1003.70
2023-06-19T06:31:02.555Z,1003.67
2023-06-19T06:32:02.801Z,1003.64
2023-06-19T06:33:02.900Z,1003.60
2023-06-19T06:34:02.745Z,1003.58
2023-06-19T06:35:02.304Z,1003.57
2023-06-19T06:36:02.643Z,1003.60
2023-06-19T06:37:06.546Z,1003.59
2023-06-19T06:38:02.922Z,1003.61
2023-06-19T06:39:02.419Z,1003.60
2023-06-19T06:40:03.006Z,1003.59
2023-06-19T06:41:02.445Z,1003.66
2023-06-19T06:42:02.356Z,1003.69
2023-06-19T06:43:02.370Z,1003.72
2023-06-19T06:44:02.218Z,1003.75
2023-06-19T06:45:01.834Z,1003.72
2023-06-19T06:46:02.000Z,1003.74
2023-06-19T06:47:02.531Z,1003.74
2023-06-19T06:48:02.734Z,1003.78
2023-06-19T06:49:02.891Z,1003.84
2023-06-19T06:50:03.161Z,1003.79
2023-06-19T06:51:02.926Z,1003.80
2023-06-19T06:52:03.122Z,1003.81
2023-06-19T06:53:03.085Z,1003.82
2023-06-19T06:54:03.183Z,1003.87
2023-06-19T06:55:03.105Z,1003.89
2023-06-19T06:56:02.731Z,1003.88
2023-06-19T06:57:02.667Z,1003.86
2023-06-19T06:58:02.318Z,1003.77
2023-06-19T06:59:02.294Z,1003.83
2023-06-19T07:00:02.066Z,1003.86
2023-06-19T07:01:02.382Z,1003.88
2023-06-19T07:02:03.275Z,1003.88
2023-06-19T07:03:02.799Z,1003.88
2023-06-19T07:04:02.855Z,1003.90
2023-06-19T07:05:03.011Z,1003.88
2023-06-19T07:06:03.011Z,1003.88
2023-06-19T07:07:02.724Z,1003.90
2023-06-19T07:08:02.691Z,1003.91
2023-06-19T07:09:02.575Z,1003.94
2023-06-19T07:10:02.770Z,1003.89
2023-06-19T07:11:02.433Z,1003.94
2023-06-19T07:12:03.340Z,1003.96
2023-06-19T07:13:02.820Z,1003.97
2023-06-19T07:14:02.996Z,1003.96
2023-06-19T07:15:03.123Z,1003.95
2023-06-19T07:16:02.645Z,1003.98
2023-06-19T07:17:03.465Z,1004.00
2023-06-19T07:18:03.176Z,1004.00
2023-06-19T07:19:03.381Z,1004.07
2023-06-19T07:20:03.231Z,1003.99
2023-06-19T07:21:03.457Z,1003.98
2023-06-19T07:22:02.443Z,1003.98
2023-06-19T07:23:02.873Z,1003.98
2023-06-19T07:24:02.710Z,1003.95
2023-06-19T07:25:02.864Z,1003.96
2023-06-19T07:26:02.457Z,1004.04
2023-06-19T07:27:02.738Z,1004.06
2023-06-19T07:28:02.896Z,1004.06
2023-06-19T07:29:03.034Z,1004.07
2023-06-19T07:30:02.955Z,1004.03
2023-06-19T07:31:02.968Z,1004.03
2023-06-19T07:32:02.788Z,1004.09
2023-06-19T07:33:02.896Z,1004.13
2023-06-19T07:34:03.233Z,1004.12
2023-06-19T07:35:02.793Z,1004.13
2023-06-19T07:36:02.963Z,1004.12
2023-06-19T07:37:02.293Z,1004.12
2023-06-19T07:38:02.665Z,1004.10
2023-06-19T07:39:02.794Z,1004.05
2023-06-19T07:40:02.463Z,1004.08
2023-06-19T07:41:02.472Z,1004.08
2023-06-19T07:42:02.728Z,1004.09
2023-06-19T07:43:03.296Z,1004.10
2023-06-19T07:44:03.203Z,1004.06
2023-06-19T07:45:02.764Z,1004.11
2023-06-19T07:46:02.706Z,1004.06
2023-06-19T07:47:02.331Z,1004.11
2023-06-19T07:48:02.704Z,1004.12
2023-06-19T07:49:02.326Z,1004.14
2023-06-19T07:50:02.647Z,1004.17
2023-06-19T07:51:02.751Z,1004.20
2023-06-19T07:52:02.673Z,1004.20
2023-06-19T07:53:02.948Z,1004.22
2023-06-19T07:54:02.519Z,1004.22
2023-06-19T07:55:02.780Z,1004.22
2023-06-19T07:56:02.874Z,1004.19
2023-06-19T07:57:02.978Z,1004.17
2023-06-19T07:58:03.147Z,1004.17
2023-06-19T07:59:05.844Z,1004.23
2023-06-19T08:00:03.633Z,1004.21
2023-06-19T08:01:02.929Z,1004.21
2023-06-19T08:02:03.370Z,1004.18
2023-06-19T08:03:03.644Z,1004.15
2023-06-19T08:04:03.883Z,1004.15
2023-06-19T08:05:03.901Z,1004.18
2023-06-19T08:06:03.724Z,1004.15
2023-06-19T08:07:03.390Z,1004.21
2023-06-19T08:08:03.488Z,1004.23
2023-06-19T08:09:03.601Z,1004.24
2023-06-19T08:10:13.184Z,1004.24
2023-06-19T08:11:03.580Z,1004.23
2023-06-19T08:12:02.664Z,1004.22
2023-06-19T08:13:02.774Z,1004.25
2023-06-19T08:14:03.108Z,1004.26
2023-06-19T08:15:02.604Z,1004.27
2023-06-19T08:16:03.032Z,1004.26
2023-06-19T08:17:03.315Z,1004.25
2023-06-19T08:18:03.502Z,1004.26
2023-06-19T08:19:03.100Z,1004.28
2023-06-19T08:20:03.325Z,1004.27
2023-06-19T08:21:03.492Z,1004.32
2023-06-19T08:22:02.838Z,1004.29
2023-06-19T08:23:05.157Z,1004.32
2023-06-19T08:24:03.362Z,1004.32
2023-06-19T08:25:03.358Z,1004.34
2023-06-19T08:26:02.627Z,1004.37
2023-06-19T08:27:03.374Z,1004.34
2023-06-19T08:28:03.395Z,1004.34
2023-06-19T08:29:03.586Z,1004.35
2023-06-19T08:30:03.820Z,1004.35
2023-06-19T08:31:03.424Z,1004.33
2023-06-19T08:32:03.593Z,1004.33
2023-06-19T08:33:03.828Z,1004.31
2023-06-19T08:34:03.625Z,1004.32
2023-06-19T08:35:03.528Z,1004.31
2023-06-19T08:36:03.707Z,1004.30
2023-06-19T08:37:03.027Z,1004.32
2023-06-19T08:38:03.273Z,1004.34
2023-06-19T08:39:03.395Z,1004.33
2023-06-19T08:40:03.367Z,1004.37
2023-06-19T08:41:02.854Z,1004.37
2023-06-19T08:42:03.681Z,1004.37
2023-06-19T08:43:03.699Z,1004.37
2023-06-19T08:44:03.831Z,1004.41
2023-06-19T08:45:03.972Z,1004.38
2023-06-19T08:46:03.764Z,1004.40
2023-06-19T08:47:03.085Z,1004.39
2023-06-19T08:48:03.038Z,1004.39
2023-06-19T08:49:03.307Z,1004.38
2023-06-19T08:50:03.216Z,1004.38
2023-06-19T08:51:02.856Z,1004.36
2023-06-19T08:52:03.062Z,1004.37
2023-06-19T08:53:03.350Z,1004.39
2023-06-19T08:54:02.884Z,1004.36
2023-06-19T08:55:03.360Z,1004.40
2023-06-19T08:56:02.862Z,1004.41
2023-06-19T08:57:03.867Z,1004.41
2023-06-19T08:58:03.493Z,1004.44
2023-06-19T08:59:03.545Z,1004.44
2023-06-19T09:00:03.755Z,1004.44
2023-06-19T09:01:04.080Z,1004.44
2023-06-19T09:02:02.433Z,1004.44
2023-06-19T09:03:13.395Z,1004.44
2023-06-19T09:04:02.511Z,1004.43
2023-06-19T09:05:02.225Z,1004.39
2023-06-19T09:06:02.477Z,1004.37
2023-06-19T09:07:02.807Z,1004.41
2023-06-19T09:08:02.884Z,1004.39
2023-06-19T09:09:02.779Z,1004.38
2023-06-19T09:10:02.283Z,1004.31
2023-06-19T09:11:02.451Z,1004.33
2023-06-19T09:12:02.371Z,1004.31
2023-06-19T09:13:01.952Z,1004.37
2023-06-19T09:14:02.243Z,1004.38
2023-06-19T09:15:02.350Z,1004.38
2023-06-19T09:16:02.466Z,1004.36
2023-06-19T09:17:02.775Z,1004.36
2023-06-19T09:18:02.381Z,1004.40
2023-06-19T09:19:02.654Z,1004.41
2023-06-19T09:20:02.788Z,1004.43
2023-06-19T09:21:02.353Z,1004.46
2023-06-19T09:22:02.965Z,1004.50
2023-06-19T09:23:02.501Z,1004.53
2023-06-19T09:24:02.907Z,1004.55
2023-06-19T09:25:02.992Z,1004.53
2023-06-19T09:26:03.144Z,1004.53
2023-06-19T09:27:03.085Z,1004.57
2023-06-19T09:28:02.611Z,1004.52
2023-06-19T09:29:02.716Z,1004.55
2023-06-19T09:30:03.006Z,1004.55
2023-06-19T09:31:03.163Z,1004.59
2023-06-19T09:32:02.443Z,1004.58
2023-06-19T09:33:02.004Z,1004.57
2023-06-19T09:34:02.300Z,1004.57
2023-06-19T09:35:02.462Z,1004.55
2023-06-19T09:36:02.749Z,1004.51
2023-06-19T09:37:02.720Z,1004.55
2023-06-19T09:38:02.814Z,1004.54
2023-06-19T09:39:02.756Z,1004.52
2023-06-19T09:40:02.362Z,1004.52
2023-06-19T09:41:02.618Z,1004.51
2023-06-19T09:42:02.943Z,1004.49
2023-06-19T09:43:02.491Z,1004.46
2023-06-19T09:44:02.702Z,1004.46
2023-06-19T09:45:03.014Z,1004.45
2023-06-19T09:46:03.020Z,1004.47
2023-06-19T09:47:03.303Z,1004.43
2023-06-19T09:48:02.883Z,1004.39
2023-06-19T09:49:03.116Z,1004.38
2023-06-19T09:50:03.223Z,1004.38
2023-06-19T09:51:02.856Z,1004.36
2023-06-19T09:52:02.893Z,1004.42
2023-06-19T09:53:05.252Z,1004.40
2023-06-19T09:54:02.630Z,1004.42
2023-06-19T09:55:02.943Z,1004.41
2023-06-19T09:56:02.777Z,1004.36
2023-06-19T09:57:03.141Z,1004.43
2023-06-19T09:58:03.158Z,1004.40
2023-06-19T09:59:02.755Z,1004.41
2023-06-19T10:00:03.110Z,1004.44
2023-06-19T10:01:02.558Z,1004.44
2023-06-19T10:02:02.622Z,1004.39
2023-06-19T10:03:02.108Z,1004.39
2023-06-19T10:04:02.315Z,1004.45
2023-06-19T10:05:02.550Z,1004.46
2023-06-19T10:06:02.553Z,1004.49
2023-06-19T10:07:02.714Z,1004.53
2023-06-19T10:08:02.180Z,1004.54
2023-06-19T10:09:02.420Z,1004.56
2023-06-19T10:10:02.352Z,1004.57
2023-06-19T10:11:02.476Z,1004.59
2023-06-19T10:12:03.303Z,1004.60
2023-06-19T10:13:03.128Z,1004.60
2023-06-19T10:14:02.704Z,1004.66
2023-06-19T10:15:02.911Z,1004.66
2023-06-19T10:16:02.854Z,1004.67
2023-06-19T10:17:03.644Z,1004.63
2023-06-19T10:18:03.597Z,1004.64
2023-06-19T10:19:03.583Z,1004.66
2023-06-19T10:20:03.616Z,1004.64
2023-06-19T10:21:03.617Z,1004.62
2023-06-19T10:22:02.657Z,1004.60
2023-06-19T10:23:02.743Z,1004.61
2023-06-19T10:24:03.506Z,1004.61
2023-06-19T10:25:03.007Z,1004.58
2023-06-19T10:26:04.196Z,1004.51
2023-06-19T10:27:02.732Z,1004.51
2023-06-19T10:28:03.098Z,1004.44
2023-06-19T10:29:03.318Z,1004.42
2023-06-19T10:30:10.980Z,1004.46
2023-06-19T10:31:03.448Z,1004.46
2023-06-19T10:32:03.403Z,1004.47
2023-06-19T10:33:02.628Z,1004.47
2023-06-19T10:34:02.753Z,1004.46
2023-06-19T10:35:02.999Z,1004.46
2023-06-19T10:36:02.536Z,1004.42
2023-06-19T10:37:02.788Z,1004.48
2023-06-19T10:38:03.093Z,1004.38
2023-06-19T10:39:03.283Z,1004.45
2023-06-19T10:40:03.533Z,1004.43
2023-06-19T10:41:03.000Z,1004.43
2023-06-19T10:42:05.816Z,1004.43
2023-06-19T10:43:02.915Z,1004.39
2023-06-19T10:44:02.958Z,1004.38
2023-06-19T10:45:02.881Z,1004.37
2023-06-19T10:46:02.859Z,1004.37
2023-06-19T10:47:02.926Z,1004.33
2023-06-19T10:48:02.973Z,1004.34
2023-06-19T10:49:02.987Z,1004.32
2023-06-19T10:50:02.366Z,1004.30
2023-06-19T10:51:02.670Z,1004.30
2023-06-19T10:52:02.930Z,1004.30
2023-06-19T10:53:02.583Z,1004.37
2023-06-19T10:54:02.920Z,1004.32
2023-06-19T10:55:03.189Z,1004.30
2023-06-19T10:56:02.720Z,1004.28
2023-06-19T10:57:02.929Z,1004.22
2023-06-19T10:58:03.818Z,1004.25
2023-06-19T10:59:03.332Z,1004.26
2023-06-19T11:00:03.876Z,1004.23
2023-06-19T11:01:03.422Z,1004.20
2023-06-19T11:02:03.551Z,1004.23
2023-06-19T11:03:03.102Z,1004.22
2023-06-19T11:04:02.546Z,1004.19
2023-06-19T11:05:02.901Z,1004.21
2023-06-19T11:06:02.386Z,1004.15
2023-06-19T11:07:02.623Z,1004.18
2023-06-19T11:08:01.963Z,1004.17
2023-06-19T11:09:02.170Z,1004.18
2023-06-19T11:10:02.383Z,1004.18
2023-06-19T11:11:01.973Z,1004.18
2023-06-19T11:12:02.219Z,1004.17
2023-06-19T11:13:02.478Z,1004.18
2023-06-19T11:14:02.648Z,1004.13
2023-06-19T11:15:02.857Z,1004.13
2023-06-19T11:16:03.140Z,1004.15
2023-06-19T11:17:02.576Z,1004.16
2023-06-19T11:18:02.000Z,1004.12
2023-06-19T11:19:02.358Z,1004.11
2023-06-19T11:20:02.160Z,1004.08
2023-06-19T11:21:03.104Z,1004.08
2023-06-19T11:22:02.454Z,1004.06
2023-06-19T11:23:02.701Z,1004.07
2023-06-19T11:24:02.668Z,1004.03
2023-06-19T11:25:02.198Z,1004.03
2023-06-19T11:26:02.505Z,1004.07
2023-06-19T11:27:02.690Z,1004.03
2023-06-19T11:28:03.249Z,1004.07
2023-06-19T11:29:02.758Z,1004.00
2023-06-19T11:30:03.067Z,1003.95
2023-06-19T11:31:03.468Z,1003.92
2023-06-19T11:32:02.706Z,1003.92
2023-06-19T11:33:02.073Z,1003.89
2023-06-19T11:34:02.431Z,1003.91
2023-06-19T11:35:02.109Z,1003.91
2023-06-19T11:36:02.512Z,1003.92
2023-06-19T11:37:02.087Z,1003.94
2023-06-19T11:38:02.475Z,1003.97
2023-06-19T11:39:02.755Z,1003.94
2023-06-19T11:40:02.936Z,1003.93
2023-06-19T11:41:02.904Z,1003.93
2023-06-19T11:42:02.265Z,1003.92
2023-06-19T11:43:02.425Z,1003.93
2023-06-19T11:44:02.723Z,1003.93
2023-06-19T11:45:02.920Z,1003.90
2023-06-19T11:46:03.228Z,1003.89
2023-06-19T11:47:03.133Z,1003.91
2023-06-19T11:48:03.119Z,1003.93
2023-06-19T11:49:07.452Z,1003.90
2023-06-19T11:50:03.117Z,1003.90
2023-06-19T11:51:03.448Z,1003.93
2023-06-19T11:52:03.785Z,1003.93
2023-06-19T11:53:02.796Z,1003.97
2023-06-19T11:54:03.073Z,1003.97
2023-06-19T11:55:02.800Z,1003.98
2023-06-19T11:56:03.165Z,1003.98
2023-06-19T11:57:03.409Z,1003.94
2023-06-19T11:58:02.488Z,1003.93
2023-06-19T11:59:02.326Z,1003.90
2023-06-19T12:00:02.646Z,1003.95
2023-06-19T12:01:02.993Z,1003.98
2023-06-19T12:02:03.082Z,1003.96
2023-06-19T12:03:03.239Z,1003.98
2023-06-19T12:04:03.788Z,1003.95
2023-06-19T12:05:03.371Z,1003.95